CheckWX is a tool to help pilots better visualize weather data.  It is not intended as a substitute for an official pre-flight weather briefing.

06:50:54 UTC

UAKK METAR
Sary-Arka Airport
Karaganda, Kazakhstan
Current

21 mins ago

UAKK 180630Z 24009MPS 9999 FEW020 M01/M08 Q1020 R23/910565 NOSIG RMK QFE718/0957
Observed
Nov-18 @ 06:30 UTC
Wind
  • 240° at 17 KTS
Visibility
10,000+ meters
Flight Rules
VFR
Cloud Levels
  • Few at 2,000' AGL
Temperature
-1°C / 30°F
Dewpoint
-8°C / 18°F
Humidity
59%
Altimeter
30.12" Hg
Pressure
1019.92 hPa
Previous

51 mins ago

UAKK 180600Z 25009MPS CAVOK M01/M08 Q1020 R23/910565 NOSIG RMK QFE718/0957
Observed
Nov-18 @ 06:00 UTC
Wind
  • 250° at 17 KTS
Visibility
10,000+ meters
Flight Rules
VFR
Cloud Levels
  • Clear skies
Temperature
-1°C / 30°F
Dewpoint
-8°C / 18°F
Humidity
59%
Altimeter
30.12" Hg
Pressure
1019.92 hPa
Previous

1 hour ago

UAKK 180530Z 24009MPS 9999 SCT033 M02/M09 Q1020 R23/910565 NOSIG RMK QFE718/0958
Observed
Nov-18 @ 05:30 UTC
Wind
  • 240° at 17 KTS
Visibility
10,000+ meters
Flight Rules
VFR
Cloud Levels
  • Scattered at 3,300' AGL
Temperature
-2°C / 28°F
Dewpoint
-9°C / 16°F
Humidity
59%
Altimeter
30.12" Hg
Pressure
1019.92 hPa